sensor_id;sensor_type;location;lat;lon;timestamp;P1;durP1;ratioP1;P2;durP2;ratioP2
70444;SDS011;57902;49.638;11.070;2022-09-11T00:00:57;8.52;;;2.30;;
70444;SDS011;57902;49.638;11.070;2022-09-11T00:03:24;11.75;;;2.60;;
70444;SDS011;57902;49.638;11.070;2022-09-11T00:05:53;6.18;;;2.67;;
70444;SDS011;57902;49.638;11.070;2022-09-11T00:08:19;7.10;;;2.47;;
70444;SDS011;57902;49.638;11.070;2022-09-11T00:10:46;6.80;;;2.47;;
70444;SDS011;57902;49.638;11.070;2022-09-11T00:13:16;7.88;;;2.58;;
70444;SDS011;57902;49.638;11.070;2022-09-11T00:15:47;7.00;;;2.35;;
70444;SDS011;57902;49.638;11.070;2022-09-11T00:18:16;8.18;;;3.00;;
70444;SDS011;57902;49.638;11.070;2022-09-11T00:20:53;4.72;;;2.47;;
70444;SDS011;57902;49.638;11.070;2022-09-11T00:23:22;6.88;;;2.60;;
70444;SDS011;57902;49.638;11.070;2022-09-11T00:25:50;11.07;;;3.13;;
70444;SDS011;57902;49.638;11.070;2022-09-11T00:28:18;10.63;;;2.60;;
70444;SDS011;57902;49.638;11.070;2022-09-11T00:33:25;7.28;;;2.60;;
70444;SDS011;57902;49.638;11.070;2022-09-11T00:35:56;7.68;;;2.60;;
70444;SDS011;57902;49.638;11.070;2022-09-11T00:38:29;5.88;;;2.40;;
70444;SDS011;57902;49.638;11.070;2022-09-11T00:40:58;9.18;;;2.35;;
70444;SDS011;57902;49.638;11.070;2022-09-11T00:43:26;6.78;;;2.35;;
70444;SDS011;57902;49.638;11.070;2022-09-11T00:45:55;8.10;;;2.35;;
70444;SDS011;57902;49.638;11.070;2022-09-11T00:48:25;11.15;;;2.75;;
70444;SDS011;57902;49.638;11.070;2022-09-11T00:50:56;4.90;;;2.10;;
70444;SDS011;57902;49.638;11.070;2022-09-11T00:53:26;4.25;;;2.00;;
70444;SDS011;57902;49.638;11.070;2022-09-11T00:55:56;6.13;;;2.00;;
70444;SDS011;57902;49.638;11.070;2022-09-11T00:58:28;7.18;;;2.20;;
70444;SDS011;57902;49.638;11.070;2022-09-11T01:00:58;14.93;;;2.28;;
70444;SDS011;57902;49.638;11.070;2022-09-11T01:03:25;6.40;;;2.22;;
70444;SDS011;57902;49.638;11.070;2022-09-11T01:05:52;6.75;;;2.00;;
70444;SDS011;57902;49.638;11.070;2022-09-11T01:08:19;3.97;;;2.00;;
70444;SDS011;57902;49.638;11.070;2022-09-11T01:14:03;5.55;;;1.70;;
70444;SDS011;57902;49.638;11.070;2022-09-11T01:16:37;3.38;;;1.70;;
70444;SDS011;57902;49.638;11.070;2022-09-11T01:19:25;3.83;;;1.48;;
70444;SDS011;57902;49.638;11.070;2022-09-11T01:24:34;6.68;;;2.00;;
70444;SDS011;57902;49.638;11.070;2022-09-11T01:27:27;4.38;;;1.90;;
70444;SDS011;57902;49.638;11.070;2022-09-11T01:30:00;5.13;;;1.65;;
70444;SDS011;57902;49.638;11.070;2022-09-11T01:35:33;3.25;;;1.58;;
70444;SDS011;57902;49.638;11.070;2022-09-11T01:41:55;3.38;;;1.60;;
70444;SDS011;57902;49.638;11.070;2022-09-11T01:44:10;6.28;;;1.60;;
70444;SDS011;57902;49.638;11.070;2022-09-11T01:46:45;2.80;;;1.55;;
70444;SDS011;57902;49.638;11.070;2022-09-11T01:49:16;4.20;;;2.03;;
70444;SDS011;57902;49.638;11.070;2022-09-11T01:51:55;3.95;;;1.73;;
70444;SDS011;57902;49.638;11.070;2022-09-11T01:54:31;5.70;;;2.00;;
70444;SDS011;57902;49.638;11.070;2022-09-11T01:57:07;4.10;;;1.65;;
70444;SDS011;57902;49.638;11.070;2022-09-11T01:59:41;3.17;;;1.58;;
70444;SDS011;57902;49.638;11.070;2022-09-11T02:02:11;4.07;;;1.80;;
70444;SDS011;57902;49.638;11.070;2022-09-11T02:04:51;4.70;;;1.90;;
70444;SDS011;57902;49.638;11.070;2022-09-11T02:07:30;4.05;;;2.00;;
70444;SDS011;57902;49.638;11.070;2022-09-11T02:10:10;4.82;;;2.00;;
70444;SDS011;57902;49.638;11.070;2022-09-11T02:12:43;6.63;;;2.17;;
70444;SDS011;57902;49.638;11.070;2022-09-11T02:15:15;8.13;;;1.95;;
70444;SDS011;57902;49.638;11.070;2022-09-11T02:20:22;5.78;;;2.00;;
70444;SDS011;57902;49.638;11.070;2022-09-11T02:22:48;8.13;;;2.17;;
70444;SDS011;57902;49.638;11.070;2022-09-11T02:25:15;4.85;;;2.17;;
70444;SDS011;57902;49.638;11.070;2022-09-11T02:27:41;5.63;;;1.98;;
70444;SDS011;57902;49.638;11.070;2022-09-11T02:30:08;4.53;;;2.13;;
70444;SDS011;57902;49.638;11.070;2022-09-11T02:32:35;5.32;;;2.20;;
70444;SDS011;57902;49.638;11.070;2022-09-11T02:35:05;7.00;;;2.80;;
70444;SDS011;57902;49.638;11.070;2022-09-11T02:40:38;10.77;;;2.60;;
70444;SDS011;57902;49.638;11.070;2022-09-11T02:54:30;4.68;;;2.20;;
70444;SDS011;57902;49.638;11.070;2022-09-11T02:57:24;6.05;;;2.17;;
70444;SDS011;57902;49.638;11.070;2022-09-11T02:59:57;5.10;;;2.40;;
70444;SDS011;57902;49.638;11.070;2022-09-11T03:02:26;5.22;;;2.17;;
70444;SDS011;57902;49.638;11.070;2022-09-11T03:04:55;7.03;;;2.30;;
70444;SDS011;57902;49.638;11.070;2022-09-11T03:07:22;4.72;;;2.30;;
70444;SDS011;57902;49.638;11.070;2022-09-11T03:09:52;5.57;;;2.38;;
70444;SDS011;57902;49.638;11.070;2022-09-11T03:12:18;7.50;;;2.13;;
70444;SDS011;57902;49.638;11.070;2022-09-11T03:14:45;4.57;;;1.83;;
70444;SDS011;57902;49.638;11.070;2022-09-11T03:17:11;5.25;;;2.35;;
70444;SDS011;57902;49.638;11.070;2022-09-11T03:19:38;6.75;;;1.92;;
70444;SDS011;57902;49.638;11.070;2022-09-11T03:22:04;4.22;;;2.00;;
70444;SDS011;57902;49.638;11.070;2022-09-11T03:24:31;5.57;;;2.00;;
70444;SDS011;57902;49.638;11.070;2022-09-11T03:26:57;4.82;;;2.20;;
70444;SDS011;57902;49.638;11.070;2022-09-11T03:29:24;4.95;;;2.10;;
70444;SDS011;57902;49.638;11.070;2022-09-11T03:31:51;4.07;;;2.03;;
70444;SDS011;57902;49.638;11.070;2022-09-11T03:34:17;5.13;;;2.33;;
70444;SDS011;57902;49.638;11.070;2022-09-11T03:36:44;6.13;;;2.60;;
70444;SDS011;57902;49.638;11.070;2022-09-11T03:39:13;5.30;;;2.63;;
70444;SDS011;57902;49.638;11.070;2022-09-11T03:41:39;45.05;;;4.60;;
70444;SDS011;57902;49.638;11.070;2022-09-11T03:44:05;14.32;;;3.28;;
70444;SDS011;57902;49.638;11.070;2022-09-11T03:46:33;7.72;;;2.65;;
70444;SDS011;57902;49.638;11.070;2022-09-11T03:49:00;6.03;;;2.72;;
70444;SDS011;57902;49.638;11.070;2022-09-11T03:51:27;4.82;;;2.53;;
70444;SDS011;57902;49.638;11.070;2022-09-11T03:53:53;4.88;;;2.60;;
70444;SDS011;57902;49.638;11.070;2022-09-11T03:56:20;5.53;;;2.72;;
70444;SDS011;57902;49.638;11.070;2022-09-11T03:58:46;6.50;;;3.30;;
70444;SDS011;57902;49.638;11.070;2022-09-11T04:01:14;6.30;;;2.95;;
70444;SDS011;57902;49.638;11.070;2022-09-11T04:03:44;6.18;;;3.03;;
70444;SDS011;57902;49.638;11.070;2022-09-11T04:06:10;6.30;;;3.72;;
70444;SDS011;57902;49.638;11.070;2022-09-11T04:08:38;6.65;;;3.63;;
70444;SDS011;57902;49.638;11.070;2022-09-11T04:11:06;6.50;;;3.15;;
70444;SDS011;57902;49.638;11.070;2022-09-11T04:13:33;8.20;;;3.55;;
70444;SDS011;57902;49.638;11.070;2022-09-11T04:16:03;6.90;;;3.35;;
70444;SDS011;57902;49.638;11.070;2022-09-11T04:18:36;11.30;;;3.53;;
70444;SDS011;57902;49.638;11.070;2022-09-11T04:21:04;8.43;;;3.40;;
70444;SDS011;57902;49.638;11.070;2022-09-11T04:23:32;7.32;;;3.35;;
70444;SDS011;57902;49.638;11.070;2022-09-11T04:25:59;6.85;;;3.30;;
70444;SDS011;57902;49.638;11.070;2022-09-11T04:28:27;7.13;;;3.50;;
70444;SDS011;57902;49.638;11.070;2022-09-11T04:30:54;7.47;;;3.35;;
70444;SDS011;57902;49.638;11.070;2022-09-11T04:35:49;6.20;;;3.13;;
70444;SDS011;57902;49.638;11.070;2022-09-11T04:38:16;11.85;;;3.42;;
70444;SDS011;57902;49.638;11.070;2022-09-11T04:40:43;6.30;;;3.40;;
70444;SDS011;57902;49.638;11.070;2022-09-11T04:43:10;10.30;;;3.55;;
70444;SDS011;57902;49.638;11.070;2022-09-11T04:45:37;14.85;;;3.38;;
70444;SDS011;57902;49.638;11.070;2022-09-11T04:48:05;6.40;;;3.30;;
70444;SDS011;57902;49.638;11.070;2022-09-11T04:50:32;13.80;;;4.05;;
70444;SDS011;57902;49.638;11.070;2022-09-11T04:52:58;10.73;;;3.90;;
70444;SDS011;57902;49.638;11.070;2022-09-11T04:55:25;7.15;;;3.50;;
70444;SDS011;57902;49.638;11.070;2022-09-11T04:57:52;6.70;;;3.40;;
70444;SDS011;57902;49.638;11.070;2022-09-11T05:00:19;9.13;;;3.85;;
70444;SDS011;57902;49.638;11.070;2022-09-11T05:02:46;7.07;;;3.70;;
70444;SDS011;57902;49.638;11.070;2022-09-11T05:05:13;7.45;;;4.00;;
70444;SDS011;57902;49.638;11.070;2022-09-11T05:07:39;10.45;;;3.85;;
70444;SDS011;57902;49.638;11.070;2022-09-11T05:10:06;8.02;;;4.03;;
70444;SDS011;57902;49.638;11.070;2022-09-11T05:12:33;8.05;;;3.92;;
70444;SDS011;57902;49.638;11.070;2022-09-11T05:15:00;8.27;;;4.10;;
70444;SDS011;57902;49.638;11.070;2022-09-11T05:17:26;7.40;;;3.53;;
70444;SDS011;57902;49.638;11.070;2022-09-11T05:19:53;7.15;;;4.03;;
70444;SDS011;57902;49.638;11.070;2022-09-11T05:22:19;6.43;;;3.67;;
70444;SDS011;57902;49.638;11.070;2022-09-11T05:24:45;8.23;;;4.38;;
70444;SDS011;57902;49.638;11.070;2022-09-11T05:27:12;7.35;;;3.83;;
70444;SDS011;57902;49.638;11.070;2022-09-11T05:29:39;8.73;;;4.13;;
70444;SDS011;57902;49.638;11.070;2022-09-11T05:32:05;8.35;;;4.13;;
70444;SDS011;57902;49.638;11.070;2022-09-11T05:34:32;10.15;;;4.78;;
70444;SDS011;57902;49.638;11.070;2022-09-11T05:36:58;8.15;;;4.18;;
70444;SDS011;57902;49.638;11.070;2022-09-11T05:39:27;8.95;;;4.43;;
70444;SDS011;57902;49.638;11.070;2022-09-11T05:41:53;10.10;;;4.60;;
70444;SDS011;57902;49.638;11.070;2022-09-11T05:44:22;11.15;;;4.70;;
70444;SDS011;57902;49.638;11.070;2022-09-11T05:46:49;7.63;;;4.03;;
70444;SDS011;57902;49.638;11.070;2022-09-11T05:49:15;8.57;;;4.45;;
70444;SDS011;57902;49.638;11.070;2022-09-11T05:51:42;7.72;;;4.43;;
70444;SDS011;57902;49.638;11.070;2022-09-11T05:54:09;7.95;;;4.30;;
70444;SDS011;57902;49.638;11.070;2022-09-11T05:56:35;10.52;;;4.60;;
70444;SDS011;57902;49.638;11.070;2022-09-11T05:59:02;8.48;;;4.53;;
70444;SDS011;57902;49.638;11.070;2022-09-11T06:01:28;8.32;;;4.15;;
70444;SDS011;57902;49.638;11.070;2022-09-11T06:03:56;8.32;;;4.38;;
70444;SDS011;57902;49.638;11.070;2022-09-11T06:06:23;10.98;;;4.60;;
70444;SDS011;57902;49.638;11.070;2022-09-11T06:08:50;8.07;;;4.25;;
70444;SDS011;57902;49.638;11.070;2022-09-11T06:11:18;8.60;;;4.18;;
70444;SDS011;57902;49.638;11.070;2022-09-11T06:13:49;7.55;;;4.22;;
70444;SDS011;57902;49.638;11.070;2022-09-11T06:16:16;8.23;;;4.05;;
70444;SDS011;57902;49.638;11.070;2022-09-11T06:18:45;8.25;;;3.92;;
70444;SDS011;57902;49.638;11.070;2022-09-11T06:21:19;9.05;;;4.13;;
70444;SDS011;57902;49.638;11.070;2022-09-11T06:23:48;8.43;;;4.03;;
70444;SDS011;57902;49.638;11.070;2022-09-11T06:26:17;7.70;;;4.13;;
70444;SDS011;57902;49.638;11.070;2022-09-11T06:28:46;7.95;;;4.00;;
70444;SDS011;57902;49.638;11.070;2022-09-11T06:31:14;7.72;;;4.00;;
70444;SDS011;57902;49.638;11.070;2022-09-11T06:33:42;8.88;;;3.85;;
70444;SDS011;57902;49.638;11.070;2022-09-11T06:36:14;7.13;;;3.92;;
70444;SDS011;57902;49.638;11.070;2022-09-11T06:38:42;7.85;;;3.50;;
70444;SDS011;57902;49.638;11.070;2022-09-11T06:41:10;8.27;;;3.53;;
70444;SDS011;57902;49.638;11.070;2022-09-11T06:43:40;8.50;;;3.80;;
70444;SDS011;57902;49.638;11.070;2022-09-11T06:46:15;7.13;;;3.70;;
70444;SDS011;57902;49.638;11.070;2022-09-11T06:48:44;9.48;;;3.63;;
70444;SDS011;57902;49.638;11.070;2022-09-11T06:51:13;7.95;;;3.33;;
70444;SDS011;57902;49.638;11.070;2022-09-11T06:53:41;6.60;;;3.28;;
70444;SDS011;57902;49.638;11.070;2022-09-11T06:56:13;7.75;;;3.75;;
70444;SDS011;57902;49.638;11.070;2022-09-11T06:58:41;6.75;;;3.25;;
70444;SDS011;57902;49.638;11.070;2022-09-11T07:01:18;5.80;;;2.95;;
70444;SDS011;57902;49.638;11.070;2022-09-11T07:03:46;8.75;;;3.28;;
70444;SDS011;57902;49.638;11.070;2022-09-11T07:06:16;6.07;;;3.42;;
70444;SDS011;57902;49.638;11.070;2022-09-11T07:08:48;6.75;;;3.15;;
70444;SDS011;57902;49.638;11.070;2022-09-11T07:11:17;6.38;;;3.25;;
70444;SDS011;57902;49.638;11.070;2022-09-11T07:13:44;6.07;;;3.30;;
70444;SDS011;57902;49.638;11.070;2022-09-11T07:16:11;4.97;;;2.72;;
70444;SDS011;57902;49.638;11.070;2022-09-11T07:18:39;5.40;;;2.78;;
70444;SDS011;57902;49.638;11.070;2022-09-11T07:21:11;5.25;;;2.55;;
70444;SDS011;57902;49.638;11.070;2022-09-11T07:23:39;6.57;;;3.03;;
70444;SDS011;57902;49.638;11.070;2022-09-11T07:26:11;9.93;;;3.00;;
70444;SDS011;57902;49.638;11.070;2022-09-11T07:28:38;6.47;;;3.10;;
70444;SDS011;57902;49.638;11.070;2022-09-11T07:31:15;6.15;;;2.80;;
70444;SDS011;57902;49.638;11.070;2022-09-11T07:33:47;8.48;;;3.40;;
70444;SDS011;57902;49.638;11.070;2022-09-11T07:36:15;7.35;;;2.60;;
70444;SDS011;57902;49.638;11.070;2022-09-11T07:38:44;6.70;;;2.80;;
70444;SDS011;57902;49.638;11.070;2022-09-11T07:43:39;4.80;;;2.53;;
70444;SDS011;57902;49.638;11.070;2022-09-11T07:46:08;5.78;;;2.50;;
70444;SDS011;57902;49.638;11.070;2022-09-11T07:48:35;7.28;;;2.95;;
70444;SDS011;57902;49.638;11.070;2022-09-11T07:51:04;6.00;;;2.63;;
70444;SDS011;57902;49.638;11.070;2022-09-11T07:53:43;5.75;;;2.30;;
70444;SDS011;57902;49.638;11.070;2022-09-11T07:56:21;6.45;;;2.58;;
70444;SDS011;57902;49.638;11.070;2022-09-11T07:58:49;5.13;;;2.47;;
70444;SDS011;57902;49.638;11.070;2022-09-11T08:01:19;5.45;;;2.50;;
70444;SDS011;57902;49.638;11.070;2022-09-11T08:03:47;4.97;;;2.30;;
70444;SDS011;57902;49.638;11.070;2022-09-11T08:06:15;5.32;;;2.25;;
70444;SDS011;57902;49.638;11.070;2022-09-11T08:08:50;5.35;;;2.80;;
70444;SDS011;57902;49.638;11.070;2022-09-11T08:11:18;4.35;;;2.17;;
70444;SDS011;57902;49.638;11.070;2022-09-11T08:13:46;4.88;;;2.15;;
70444;SDS011;57902;49.638;11.070;2022-09-11T08:16:16;4.30;;;2.13;;
70444;SDS011;57902;49.638;11.070;2022-09-11T08:18:44;6.60;;;2.25;;
70444;SDS011;57902;49.638;11.070;2022-09-11T08:21:11;4.60;;;2.20;;
70444;SDS011;57902;49.638;11.070;2022-09-11T08:23:39;6.88;;;1.98;;
70444;SDS011;57902;49.638;11.070;2022-09-11T08:26:08;3.45;;;1.83;;
70444;SDS011;57902;49.638;11.070;2022-09-11T08:28:36;4.65;;;2.10;;
70444;SDS011;57902;49.638;11.070;2022-09-11T08:31:04;5.13;;;1.80;;
70444;SDS011;57902;49.638;11.070;2022-09-11T08:36:02;5.00;;;1.90;;
70444;SDS011;57902;49.638;11.070;2022-09-11T08:38:30;4.47;;;1.92;;
70444;SDS011;57902;49.638;11.070;2022-09-11T08:40:58;3.92;;;1.90;;
70444;SDS011;57902;49.638;11.070;2022-09-11T08:43:42;3.80;;;1.88;;
70444;SDS011;57902;49.638;11.070;2022-09-11T08:46:16;4.47;;;1.75;;
70444;SDS011;57902;49.638;11.070;2022-09-11T08:48:49;4.70;;;1.80;;
70444;SDS011;57902;49.638;11.070;2022-09-11T08:51:22;6.32;;;1.90;;
70444;SDS011;57902;49.638;11.070;2022-09-11T08:53:50;4.35;;;1.67;;
70444;SDS011;57902;49.638;11.070;2022-09-11T08:56:20;5.15;;;1.90;;
70444;SDS011;57902;49.638;11.070;2022-09-11T09:07:39;4.57;;;1.80;;
70444;SDS011;57902;49.638;11.070;2022-09-11T09:18:55;5.45;;;1.70;;
70444;SDS011;57902;49.638;11.070;2022-09-11T09:21:27;6.70;;;1.70;;
70444;SDS011;57902;49.638;11.070;2022-09-11T09:24:01;3.38;;;1.63;;
70444;SDS011;57902;49.638;11.070;2022-09-11T09:26:34;5.35;;;2.10;;
70444;SDS011;57902;49.638;11.070;2022-09-11T09:29:07;5.82;;;2.03;;
70444;SDS011;57902;49.638;11.070;2022-09-11T09:31:39;7.07;;;2.10;;
70444;SDS011;57902;49.638;11.070;2022-09-11T09:34:12;5.63;;;2.13;;
70444;SDS011;57902;49.638;11.070;2022-09-11T09:36:54;6.55;;;2.33;;
70444;SDS011;57902;49.638;11.070;2022-09-11T09:39:25;5.35;;;2.10;;
70444;SDS011;57902;49.638;11.070;2022-09-11T09:47:14;5.05;;;2.42;;
70444;SDS011;57902;49.638;11.070;2022-09-11T09:49:42;9.68;;;2.50;;
70444;SDS011;57902;49.638;11.070;2022-09-11T09:52:17;6.28;;;2.22;;
70444;SDS011;57902;49.638;11.070;2022-09-11T09:54:52;5.25;;;2.70;;
70444;SDS011;57902;49.638;11.070;2022-09-11T09:57:22;6.03;;;2.15;;
70444;SDS011;57902;49.638;11.070;2022-09-11T09:59:56;6.00;;;2.17;;
70444;SDS011;57902;49.638;11.070;2022-09-11T10:02:45;5.13;;;2.33;;
70444;SDS011;57902;49.638;11.070;2022-09-11T10:05:29;5.65;;;2.30;;
70444;SDS011;57902;49.638;11.070;2022-09-11T10:08:06;5.80;;;2.47;;
70444;SDS011;57902;49.638;11.070;2022-09-11T10:11:01;5.93;;;2.55;;
70444;SDS011;57902;49.638;11.070;2022-09-11T10:13:36;6.82;;;2.53;;
70444;SDS011;57902;49.638;11.070;2022-09-11T10:16:20;5.22;;;2.50;;
70444;SDS011;57902;49.638;11.070;2022-09-11T10:18:48;5.50;;;2.42;;
70444;SDS011;57902;49.638;11.070;2022-09-11T10:21:22;4.53;;;2.40;;
70444;SDS011;57902;49.638;11.070;2022-09-11T10:24:01;6.32;;;2.40;;
70444;SDS011;57902;49.638;11.070;2022-09-11T10:26:45;5.57;;;2.28;;
70444;SDS011;57902;49.638;11.070;2022-09-11T10:29:22;4.45;;;2.30;;
70444;SDS011;57902;49.638;11.070;2022-09-11T10:34:23;6.50;;;2.80;;
70444;SDS011;57902;49.638;11.070;2022-09-11T10:36:55;6.53;;;2.50;;
70444;SDS011;57902;49.638;11.070;2022-09-11T10:39:26;6.63;;;2.60;;
70444;SDS011;57902;49.638;11.070;2022-09-11T10:41:56;5.50;;;2.55;;
70444;SDS011;57902;49.638;11.070;2022-09-11T10:44:26;4.60;;;2.30;;
70444;SDS011;57902;49.638;11.070;2022-09-11T10:47:02;5.90;;;2.55;;
70444;SDS011;57902;49.638;11.070;2022-09-11T10:49:47;5.78;;;2.38;;
70444;SDS011;57902;49.638;11.070;2022-09-11T11:02:49;5.00;;;2.25;;
70444;SDS011;57902;49.638;11.070;2022-09-11T11:05:23;6.43;;;2.67;;
70444;SDS011;57902;49.638;11.070;2022-09-11T11:10:47;5.32;;;2.70;;
70444;SDS011;57902;49.638;11.070;2022-09-11T11:16:34;5.45;;;2.15;;
70444;SDS011;57902;49.638;11.070;2022-09-11T11:25:10;5.53;;;2.50;;
70444;SDS011;57902;49.638;11.070;2022-09-11T11:27:54;4.13;;;2.15;;
70444;SDS011;57902;49.638;11.070;2022-09-11T11:33:47;7.95;;;2.70;;
70444;SDS011;57902;49.638;11.070;2022-09-11T11:38:49;4.80;;;2.50;;
70444;SDS011;57902;49.638;11.070;2022-09-11T11:41:29;6.55;;;2.30;;
70444;SDS011;57902;49.638;11.070;2022-09-11T11:44:04;6.05;;;2.20;;
70444;SDS011;57902;49.638;11.070;2022-09-11T11:46:38;10.07;;;2.42;;
70444;SDS011;57902;49.638;11.070;2022-09-11T11:49:22;7.53;;;2.58;;
70444;SDS011;57902;49.638;11.070;2022-09-11T11:52:04;5.00;;;2.30;;
70444;SDS011;57902;49.638;11.070;2022-09-11T11:54:44;6.20;;;2.00;;
70444;SDS011;57902;49.638;11.070;2022-09-11T11:57:19;5.82;;;2.53;;
70444;SDS011;57902;49.638;11.070;2022-09-11T12:00:00;5.82;;;2.58;;
70444;SDS011;57902;49.638;11.070;2022-09-11T12:02:50;5.95;;;2.67;;
70444;SDS011;57902;49.638;11.070;2022-09-11T12:05:25;7.47;;;2.60;;
70444;SDS011;57902;49.638;11.070;2022-09-11T12:07:56;7.82;;;2.42;;
70444;SDS011;57902;49.638;11.070;2022-09-11T12:12:59;4.25;;;2.20;;
70444;SDS011;57902;49.638;11.070;2022-09-11T12:15:37;5.75;;;2.45;;
70444;SDS011;57902;49.638;11.070;2022-09-11T12:20:43;11.63;;;2.75;;
70444;SDS011;57902;49.638;11.070;2022-09-11T12:26:03;4.93;;;2.35;;
70444;SDS011;57902;49.638;11.070;2022-09-11T12:30:58;5.30;;;2.33;;
70444;SDS011;57902;49.638;11.070;2022-09-11T12:36:26;4.00;;;2.30;;
70444;SDS011;57902;49.638;11.070;2022-09-11T12:38:59;5.03;;;2.50;;
70444;SDS011;57902;49.638;11.070;2022-09-11T12:41:32;11.85;;;2.67;;
70444;SDS011;57902;49.638;11.070;2022-09-11T12:44:01;4.82;;;2.47;;
70444;SDS011;57902;49.638;11.070;2022-09-11T12:48:56;9.55;;;2.47;;
70444;SDS011;57902;49.638;11.070;2022-09-11T12:51:52;5.88;;;2.10;;
70444;SDS011;57902;49.638;11.070;2022-09-11T12:57:14;8.38;;;2.70;;
70444;SDS011;57902;49.638;11.070;2022-09-11T12:59:45;12.27;;;2.90;;
70444;SDS011;57902;49.638;11.070;2022-09-11T13:05:01;5.22;;;2.63;;
70444;SDS011;57902;49.638;11.070;2022-09-11T13:07:37;4.65;;;2.60;;
70444;SDS011;57902;49.638;11.070;2022-09-11T13:10:08;7.10;;;2.80;;
70444;SDS011;57902;49.638;11.070;2022-09-11T13:12:51;7.10;;;3.15;;
70444;SDS011;57902;49.638;11.070;2022-09-11T13:20:55;11.90;;;3.55;;
70444;SDS011;57902;49.638;11.070;2022-09-11T13:23:27;6.82;;;2.63;;
70444;SDS011;57902;49.638;11.070;2022-09-11T13:25:54;14.38;;;3.55;;
70444;SDS011;57902;49.638;11.070;2022-09-11T13:28:23;11.15;;;3.28;;
70444;SDS011;57902;49.638;11.070;2022-09-11T13:30:59;6.38;;;3.35;;
70444;SDS011;57902;49.638;11.070;2022-09-11T13:33:28;10.02;;;3.63;;
70444;SDS011;57902;49.638;11.070;2022-09-11T13:35:57;15.43;;;3.25;;
70444;SDS011;57902;49.638;11.070;2022-09-11T13:38:28;6.00;;;3.17;;
70444;SDS011;57902;49.638;11.070;2022-09-11T13:40:59;5.68;;;3.00;;
70444;SDS011;57902;49.638;11.070;2022-09-11T13:43:51;6.85;;;3.65;;
70444;SDS011;57902;49.638;11.070;2022-09-11T13:46:32;11.90;;;3.88;;
70444;SDS011;57902;49.638;11.070;2022-09-11T13:51:38;7.75;;;3.92;;
70444;SDS011;57902;49.638;11.070;2022-09-11T13:54:13;10.25;;;3.65;;
70444;SDS011;57902;49.638;11.070;2022-09-11T13:59:26;7.47;;;3.40;;
70444;SDS011;57902;49.638;11.070;2022-09-11T14:02:00;8.13;;;3.53;;
70444;SDS011;57902;49.638;11.070;2022-09-11T14:04:29;9.82;;;4.13;;
70444;SDS011;57902;49.638;11.070;2022-09-11T14:07:03;9.65;;;3.28;;
70444;SDS011;57902;49.638;11.070;2022-09-11T14:09:40;5.93;;;3.42;;
70444;SDS011;57902;49.638;11.070;2022-09-11T14:12:12;6.57;;;3.13;;
70444;SDS011;57902;49.638;11.070;2022-09-11T14:14:39;5.88;;;2.95;;
70444;SDS011;57902;49.638;11.070;2022-09-11T14:17:12;6.90;;;2.28;;
70444;SDS011;57902;49.638;11.070;2022-09-11T14:19:40;5.25;;;1.80;;
70444;SDS011;57902;49.638;11.070;2022-09-11T14:22:13;21.08;;;2.70;;
70444;SDS011;57902;49.638;11.070;2022-09-11T14:25:01;4.00;;;1.70;;
70444;SDS011;57902;49.638;11.070;2022-09-11T14:27:36;5.03;;;1.83;;
70444;SDS011;57902;49.638;11.070;2022-09-11T14:30:22;4.00;;;1.73;;
70444;SDS011;57902;49.638;11.070;2022-09-11T14:35:41;3.17;;;1.80;;
70444;SDS011;57902;49.638;11.070;2022-09-11T14:38:10;10.13;;;1.70;;
70444;SDS011;57902;49.638;11.070;2022-09-11T14:40:41;6.03;;;1.60;;
70444;SDS011;57902;49.638;11.070;2022-09-11T14:43:12;3.65;;;1.30;;
70444;SDS011;57902;49.638;11.070;2022-09-11T14:45:38;2.85;;;1.48;;
70444;SDS011;57902;49.638;11.070;2022-09-11T14:48:11;3.17;;;1.60;;
70444;SDS011;57902;49.638;11.070;2022-09-11T14:50:39;4.38;;;1.60;;
70444;SDS011;57902;49.638;11.070;2022-09-11T14:53:11;3.50;;;1.60;;
70444;SDS011;57902;49.638;11.070;2022-09-11T14:55:43;4.10;;;1.80;;
70444;SDS011;57902;49.638;11.070;2022-09-11T14:58:10;5.60;;;1.90;;
70444;SDS011;57902;49.638;11.070;2022-09-11T15:00:36;6.03;;;1.83;;
70444;SDS011;57902;49.638;11.070;2022-09-11T15:03:03;4.22;;;1.73;;
70444;SDS011;57902;49.638;11.070;2022-09-11T15:05:29;5.93;;;1.90;;
70444;SDS011;57902;49.638;11.070;2022-09-11T15:07:57;3.72;;;1.90;;
70444;SDS011;57902;49.638;11.070;2022-09-11T15:12:52;4.57;;;2.03;;
70444;SDS011;57902;49.638;11.070;2022-09-11T15:15:20;43.72;;;4.63;;
70444;SDS011;57902;49.638;11.070;2022-09-11T15:17:47;3.90;;;1.77;;
70444;SDS011;57902;49.638;11.070;2022-09-11T15:20:13;6.43;;;2.33;;
70444;SDS011;57902;49.638;11.070;2022-09-11T15:22:39;4.38;;;2.00;;
70444;SDS011;57902;49.638;11.070;2022-09-11T15:25:06;6.80;;;2.13;;
70444;SDS011;57902;49.638;11.070;2022-09-11T15:27:33;6.57;;;1.67;;
70444;SDS011;57902;49.638;11.070;2022-09-11T15:29:59;4.50;;;1.95;;
70444;SDS011;57902;49.638;11.070;2022-09-11T15:32:26;3.88;;;1.52;;
70444;SDS011;57902;49.638;11.070;2022-09-11T15:34:53;2.47;;;1.48;;
70444;SDS011;57902;49.638;11.070;2022-09-11T15:37:19;4.13;;;1.67;;
70444;SDS011;57902;49.638;11.070;2022-09-11T15:39:47;4.70;;;1.73;;
70444;SDS011;57902;49.638;11.070;2022-09-11T15:42:15;5.03;;;1.70;;
70444;SDS011;57902;49.638;11.070;2022-09-11T15:47:24;5.57;;;2.22;;
70444;SDS011;57902;49.638;11.070;2022-09-11T15:49:50;5.90;;;2.00;;
70444;SDS011;57902;49.638;11.070;2022-09-11T15:52:17;4.20;;;1.63;;
70444;SDS011;57902;49.638;11.070;2022-09-11T15:54:44;3.63;;;1.60;;
70444;SDS011;57902;49.638;11.070;2022-09-11T15:59:39;3.22;;;1.73;;
70444;SDS011;57902;49.638;11.070;2022-09-11T16:02:06;3.35;;;1.70;;
70444;SDS011;57902;49.638;11.070;2022-09-11T16:04:34;4.93;;;2.05;;
70444;SDS011;57902;49.638;11.070;2022-09-11T16:07:00;4.00;;;2.00;;
70444;SDS011;57902;49.638;11.070;2022-09-11T16:09:28;4.53;;;2.00;;
70444;SDS011;57902;49.638;11.070;2022-09-11T16:11:56;6.57;;;2.10;;
70444;SDS011;57902;49.638;11.070;2022-09-11T16:14:26;8.73;;;2.22;;
70444;SDS011;57902;49.638;11.070;2022-09-11T16:16:56;5.30;;;2.20;;
70444;SDS011;57902;49.638;11.070;2022-09-11T16:19:24;5.65;;;2.20;;
70444;SDS011;57902;49.638;11.070;2022-09-11T16:21:58;4.10;;;1.90;;
70444;SDS011;57902;49.638;11.070;2022-09-11T16:24:27;4.38;;;2.15;;
70444;SDS011;57902;49.638;11.070;2022-09-11T16:26:55;4.75;;;2.08;;
70444;SDS011;57902;49.638;11.070;2022-09-11T16:29:22;4.40;;;2.15;;
70444;SDS011;57902;49.638;11.070;2022-09-11T16:31:50;20.15;;;3.10;;
70444;SDS011;57902;49.638;11.070;2022-09-11T16:34:17;12.30;;;2.70;;
70444;SDS011;57902;49.638;11.070;2022-09-11T16:36:44;9.15;;;2.67;;
70444;SDS011;57902;49.638;11.070;2022-09-11T16:39:12;7.70;;;2.53;;
70444;SDS011;57902;49.638;11.070;2022-09-11T16:41:40;41.13;;;5.35;;
70444;SDS011;57902;49.638;11.070;2022-09-11T16:44:08;7.07;;;2.60;;
70444;SDS011;57902;49.638;11.070;2022-09-11T16:46:38;8.20;;;2.53;;
70444;SDS011;57902;49.638;11.070;2022-09-11T16:49:05;39.50;;;3.88;;
70444;SDS011;57902;49.638;11.070;2022-09-11T16:51:32;19.00;;;3.20;;
70444;SDS011;57902;49.638;11.070;2022-09-11T16:53:59;12.43;;;3.13;;
70444;SDS011;57902;49.638;11.070;2022-09-11T16:56:28;19.77;;;3.80;;
70444;SDS011;57902;49.638;11.070;2022-09-11T16:58:55;9.25;;;2.83;;
70444;SDS011;57902;49.638;11.070;2022-09-11T17:01:23;134.25;;;12.23;;
70444;SDS011;57902;49.638;11.070;2022-09-11T17:03:52;182.57;;;13.60;;
70444;SDS011;57902;49.638;11.070;2022-09-11T17:06:21;31.02;;;3.75;;
70444;SDS011;57902;49.638;11.070;2022-09-11T17:08:49;14.88;;;2.88;;